createdAt,value
2019-05-06T00:00:34.084Z,72.53
2019-05-06T00:01:34.152Z,72.53
2019-05-06T00:02:34.070Z,72.01
2019-05-06T00:03:34.406Z,72.53
2019-05-06T00:04:34.116Z,72.53
2019-05-06T00:05:34.134Z,72.63
2019-05-06T00:06:34.634Z,72.53
2019-05-06T00:07:34.043Z,72.42
2019-05-06T00:08:34.566Z,72.74
2019-05-06T00:09:34.880Z,72.49
2019-05-06T00:10:34.119Z,72.60
2019-05-06T00:11:34.691Z,72.60
2019-05-06T00:12:33.630Z,72.49
2019-05-06T00:13:34.387Z,72.49
2019-05-06T00:14:33.932Z,72.53
2019-05-06T00:15:34.361Z,72.74
2019-05-06T00:16:34.721Z,72.74
2019-05-06T00:17:34.936Z,72.63
2019-05-06T00:18:34.129Z,72.42
2019-05-06T00:19:34.146Z,72.53
2019-05-06T00:20:34.799Z,72.49
2019-05-06T00:21:35.450Z,72.53
2019-05-06T00:22:34.320Z,72.74
2019-05-06T00:23:35.337Z,72.74
2019-05-06T00:24:34.772Z,72.94
2019-05-06T00:25:34.857Z,73.08
2019-05-06T00:26:33.978Z,72.94
2019-05-06T00:27:34.223Z,73.25
2019-05-06T00:28:33.971Z,73.36
2019-05-06T00:29:34.924Z,73.36
2019-05-06T00:30:34.527Z,74.43
2019-05-06T00:31:34.588Z,73.18
2019-05-06T00:32:34.841Z,74.43
2019-05-06T00:33:34.118Z,73.18
2019-05-06T00:34:34.117Z,73.39
2019-05-06T00:35:34.250Z,73.49
2019-05-06T00:36:34.491Z,73.49
2019-05-06T00:37:34.896Z,73.49
2019-05-06T00:38:33.989Z,73.60
2019-05-06T00:39:33.647Z,74.32
2019-05-06T00:40:34.014Z,74.36
2019-05-06T00:41:36.454Z,74.57
2019-05-06T00:42:34.606Z,74.77
2019-05-06T00:43:34.486Z,74.57
2019-05-06T00:44:34.667Z,74.98
2019-05-06T00:45:34.105Z,74.98
2019-05-06T00:46:34.433Z,75.15
2019-05-06T00:47:34.010Z,75.09
2019-05-06T00:48:34.089Z,75.26
2019-05-06T00:49:34.440Z,74.95
2019-05-06T00:50:34.838Z,75.15
2019-05-06T00:51:33.856Z,75.05
2019-05-06T00:52:33.997Z,75.26
2019-05-06T00:53:34.738Z,75.46
2019-05-06T00:54:34.067Z,75.57
2019-05-06T00:55:33.763Z,75.57
2019-05-06T00:56:34.046Z,75.57
2019-05-06T00:57:34.037Z,75.88
2019-05-06T00:58:34.725Z,75.54
2019-05-06T00:59:34.586Z,75.74
2019-05-06T01:00:33.674Z,75.85
2019-05-06T01:01:34.500Z,75.64
2019-05-06T01:02:34.256Z,75.85
2019-05-06T01:03:34.744Z,75.50
2019-05-06T01:04:33.869Z,75.71
2019-05-06T01:05:33.746Z,75.81
2019-05-06T01:06:34.409Z,75.92
2019-05-06T01:07:34.478Z,75.92
2019-05-06T01:08:34.770Z,75.36
2019-05-06T01:09:34.365Z,75.46
2019-05-06T01:10:34.411Z,75.63
2019-05-06T01:11:34.622Z,74.71
2019-05-06T01:12:34.634Z,75.02
2019-05-06T01:13:34.962Z,74.71
2019-05-06T01:14:32.725Z,74.91
2019-05-06T01:15:34.353Z,74.29
2019-05-06T01:16:34.547Z,74.15
2019-05-06T01:17:33.900Z,74.57
2019-05-06T01:18:34.027Z,74.36
2019-05-06T01:19:34.225Z,74.57
2019-05-06T01:20:33.915Z,74.53
2019-05-06T01:21:34.246Z,72.88
2019-05-06T01:22:34.206Z,73.39
2019-05-06T01:23:34.235Z,72.88
2019-05-06T01:24:34.446Z,73.08
2019-05-06T01:25:34.472Z,73.29
2019-05-06T01:26:33.769Z,72.43
2019-05-06T01:27:33.763Z,71.81
2019-05-06T01:28:34.077Z,72.43
2019-05-06T01:29:34.635Z,72.19
2019-05-06T01:30:33.712Z,72.08
2019-05-06T01:31:42.336Z,72.29
2019-05-06T01:32:34.517Z,71.67
2019-05-06T01:33:34.956Z,72.08
2019-05-06T01:34:34.022Z,71.05
2019-05-06T01:35:32.500Z,70.22
2019-05-06T01:36:34.327Z,69.81
2019-05-06T01:37:34.593Z,69.26
2019-05-06T01:38:34.006Z,69.26
2019-05-06T01:39:34.167Z,69.16
2019-05-06T01:40:34.497Z,69.06
2019-05-06T01:41:33.831Z,68.82
2019-05-06T01:42:34.307Z,69.02
2019-05-06T01:43:34.553Z,68.51
2019-05-06T01:44:33.919Z,68.09
2019-05-06T01:45:32.400Z,68.30
2019-05-06T01:46:33.970Z,69.02
2019-05-06T01:47:34.443Z,67.85
2019-05-06T01:48:33.640Z,67.88
2019-05-06T01:49:33.994Z,67.85
2019-05-06T01:50:34.341Z,67.85
2019-05-06T01:51:34.594Z,68.06
2019-05-06T01:52:34.347Z,67.85
2019-05-06T01:53:33.882Z,67.96
2019-05-06T01:54:34.186Z,67.88
2019-05-06T01:55:34.200Z,68.09
2019-05-06T01:56:33.765Z,68.27
2019-05-06T01:57:33.736Z,69.02
2019-05-06T01:58:33.570Z,69.43
2019-05-06T01:59:34.088Z,69.82
2019-05-06T02:00:34.332Z,68.92
2019-05-06T02:01:34.141Z,69.09
2019-05-06T02:02:34.206Z,68.88
2019-05-06T02:03:32.200Z,68.61
2019-05-06T02:04:33.723Z,67.88
2019-05-06T02:05:33.697Z,67.99
2019-05-06T02:06:34.089Z,68.30
2019-05-06T02:07:32.156Z,68.23
2019-05-06T02:08:33.681Z,67.99
2019-05-06T02:09:33.999Z,67.88
2019-05-06T02:10:34.506Z,68.30
2019-05-06T02:11:33.711Z,67.91
2019-05-06T02:12:34.083Z,67.82
2019-05-06T02:13:32.092Z,67.91
2019-05-06T02:14:34.149Z,68.23
2019-05-06T02:15:32.070Z,68.23
2019-05-06T02:16:34.112Z,68.85
2019-05-06T02:17:32.049Z,68.95
2019-05-06T02:18:33.895Z,68.95
2019-05-06T02:19:32.030Z,68.67
2019-05-06T02:20:34.011Z,68.77
2019-05-06T02:21:33.631Z,68.64
2019-05-06T02:22:31.996Z,68.54
2019-05-06T02:23:33.854Z,68.67
2019-05-06T02:24:33.764Z,69.09
2019-05-06T02:25:34.032Z,69.40
2019-05-06T02:26:31.953Z,69.19
2019-05-06T02:27:33.979Z,69.50
2019-05-06T02:28:34.345Z,70.01
2019-05-06T02:29:34.089Z,69.95
2019-05-06T02:30:31.919Z,70.77
2019-05-06T02:31:35.151Z,70.57
2019-05-06T02:32:34.965Z,70.57
2019-05-06T02:33:31.881Z,70.77
2019-05-06T02:34:31.870Z,70.81
2019-05-06T02:35:34.464Z,70.98
2019-05-06T02:36:34.292Z,71.01
2019-05-06T02:37:34.728Z,71.53
2019-05-06T02:38:39.082Z,72.29
2019-05-06T02:39:34.084Z,71.88
2019-05-06T02:40:33.238Z,71.91
2019-05-06T02:41:33.710Z,72.53
2019-05-06T02:42:33.665Z,72.32
2019-05-06T02:43:34.418Z,72.63
2019-05-06T02:44:33.590Z,72.88
2019-05-06T02:45:33.483Z,73.18
2019-05-06T02:46:33.848Z,72.77
2019-05-06T02:47:34.341Z,73.32
2019-05-06T02:48:33.596Z,73.49
2019-05-06T02:49:33.036Z,73.60
2019-05-06T02:50:33.907Z,73.08
2019-05-06T02:51:33.388Z,73.43
2019-05-06T02:52:32.948Z,73.84
2019-05-06T02:53:33.487Z,73.32
2019-05-06T02:54:34.456Z,73.77
2019-05-06T02:55:35.406Z,73.84
2019-05-06T02:56:33.345Z,74.15
2019-05-06T02:57:33.459Z,74.60
2019-05-06T02:58:33.074Z,74.60
2019-05-06T02:59:33.137Z,74.71
2019-05-06T03:00:32.986Z,74.71
2019-05-06T03:01:34.017Z,74.60
2019-05-06T03:02:41.976Z,74.74
2019-05-06T03:03:33.791Z,75.05
2019-05-06T03:04:33.223Z,75.50
2019-05-06T03:05:33.311Z,75.60
2019-05-06T03:06:33.746Z,75.78
2019-05-06T03:07:32.759Z,75.81
2019-05-06T03:08:32.851Z,75.29
2019-05-06T03:09:33.959Z,76.23
2019-05-06T03:10:32.899Z,76.75
2019-05-06T03:11:33.191Z,76.57
2019-05-06T03:12:33.547Z,76.64
2019-05-06T03:13:34.039Z,76.75
2019-05-06T03:14:34.468Z,76.47
2019-05-06T03:15:33.554Z,76.68
2019-05-06T03:16:33.322Z,76.78
2019-05-06T03:17:32.880Z,76.57
2019-05-06T03:18:32.813Z,76.99
2019-05-06T03:19:34.038Z,76.78
2019-05-06T03:20:32.438Z,77.09
2019-05-06T03:21:33.665Z,76.89
2019-05-06T03:22:34.424Z,76.57
2019-05-06T03:23:34.476Z,76.68
2019-05-06T03:24:33.112Z,76.16
2019-05-06T03:25:33.161Z,76.37
2019-05-06T03:26:33.146Z,76.68
2019-05-06T03:27:32.899Z,76.68
2019-05-06T03:28:33.328Z,76.68
2019-05-06T03:29:33.363Z,76.99
2019-05-06T03:30:35.652Z,76.78
2019-05-06T03:31:36.497Z,77.20
2019-05-06T03:32:37.819Z,77.09
2019-05-06T03:33:50.802Z,77.20
2019-05-06T03:34:52.166Z,77.09
2019-05-06T03:35:42.534Z,77.20
2019-05-06T03:36:39.415Z,77.30
2019-05-06T03:37:33.484Z,77.40
2019-05-06T03:38:33.396Z,77.30
2019-05-06T03:39:33.700Z,76.78
2019-05-06T03:40:36.150Z,77.13
2019-05-06T03:41:33.777Z,77.34
2019-05-06T03:42:33.462Z,77.23
2019-05-06T03:43:33.668Z,77.65
2019-05-06T03:44:33.090Z,77.65
2019-05-06T03:45:33.559Z,77.65
2019-05-06T03:46:33.478Z,77.65
2019-05-06T03:47:34.226Z,77.44
2019-05-06T03:48:33.316Z,77.40
2019-05-06T03:49:33.857Z,77.82
2019-05-06T03:50:33.604Z,77.72
2019-05-06T03:51:33.501Z,77.40
2019-05-06T03:52:33.842Z,77.37
2019-05-06T03:53:33.365Z,77.16
2019-05-06T03:54:34.017Z,76.29
2019-05-06T03:55:33.964Z,75.88
2019-05-06T03:56:33.725Z,75.78
2019-05-06T03:57:33.244Z,75.98
2019-05-06T03:58:30.975Z,75.67
2019-05-06T03:59:33.477Z,75.60
2019-05-06T04:00:33.341Z,75.60
2019-05-06T04:01:33.572Z,75.88
2019-05-06T04:02:33.450Z,75.74
2019-05-06T04:03:44.120Z,74.46
2019-05-06T04:04:33.222Z,73.39
2019-05-06T04:05:33.389Z,72.81
2019-05-06T04:06:33.311Z,71.08
2019-05-06T04:07:33.793Z,69.60
2019-05-06T04:08:33.870Z,69.19
2019-05-06T04:09:36.277Z,69.43
2019-05-06T04:10:33.780Z,69.22
2019-05-06T04:11:35.875Z,70.81
2019-05-06T04:12:33.123Z,70.63
2019-05-06T04:13:33.187Z,71.46
2019-05-06T04:14:32.977Z,71.56
2019-05-06T04:15:34.043Z,71.67
2019-05-06T04:16:33.637Z,72.11
2019-05-06T04:17:32.925Z,71.91
2019-05-06T04:18:33.386Z,72.84
2019-05-06T04:19:33.319Z,72.98
2019-05-06T04:20:33.973Z,72.94
2019-05-06T04:21:32.984Z,72.63
2019-05-06T04:22:33.099Z,72.81
2019-05-06T04:23:33.089Z,72.39
2019-05-06T04:24:33.486Z,72.91
2019-05-06T04:25:30.689Z,72.94
2019-05-06T04:26:32.953Z,73.77
2019-05-06T04:27:33.267Z,73.25
2019-05-06T04:28:33.953Z,73.32
2019-05-06T04:29:33.076Z,72.88
2019-05-06T04:30:33.189Z,72.36
2019-05-06T04:31:33.406Z,73.08
2019-05-06T04:32:33.850Z,72.77
2019-05-06T04:33:33.121Z,73.11
2019-05-06T04:34:33.152Z,72.91
2019-05-06T04:35:33.568Z,72.88
2019-05-06T04:36:33.469Z,72.81
2019-05-06T04:37:33.616Z,71.57
2019-05-06T04:38:33.495Z,70.95
2019-05-06T04:39:33.121Z,71.15
2019-05-06T04:40:33.133Z,71.57
2019-05-06T04:41:33.816Z,70.95
2019-05-06T04:42:30.511Z,68.04
2019-05-06T04:43:33.422Z,64.48
2019-05-06T04:44:32.860Z,62.65
2019-05-06T04:45:33.415Z,60.00
2019-05-06T04:46:30.469Z,58.28
2019-05-06T04:47:32.736Z,56.66
2019-05-06T04:48:33.049Z,54.59
2019-05-06T04:49:33.072Z,53.19
2019-05-06T04:50:33.129Z,52.25
2019-05-06T04:51:32.766Z,51.38
2019-05-06T04:52:34.140Z,50.34
2019-05-06T04:53:33.888Z,49.29
2019-05-06T04:54:33.085Z,49.17
2019-05-06T04:55:33.370Z,48.94
2019-05-06T04:56:33.138Z,48.33
2019-05-06T04:57:33.369Z,48.11
2019-05-06T04:58:33.263Z,46.56
2019-05-06T04:59:32.583Z,46.82
2019-05-06T05:00:33.000Z,45.37
2019-05-06T05:01:30.304Z,45.89
2019-05-06T05:02:30.293Z,45.98
2019-05-06T05:03:30.282Z,45.89
2019-05-06T05:04:32.603Z,45.76
2019-05-06T05:05:33.077Z,44.12
2019-05-06T05:06:32.661Z,44.42
2019-05-06T05:07:30.243Z,44.20
2019-05-06T05:08:30.228Z,44.34
2019-05-06T05:09:32.595Z,45.15
2019-05-06T05:10:32.305Z,44.62
2019-05-06T05:11:33.084Z,44.07
2019-05-06T05:12:30.188Z,43.57
2019-05-06T05:13:32.778Z,44.18
2019-05-06T05:14:30.197Z,42.13
2019-05-06T05:15:32.411Z,42.84
2019-05-06T05:16:30.144Z,42.63
2019-05-06T05:17:30.135Z,42.68
2019-05-06T05:18:32.015Z,43.98
2019-05-06T05:19:32.575Z,42.54
2019-05-06T05:20:38.185Z,43.12
2019-05-06T05:21:32.262Z,41.56
2019-05-06T05:22:30.082Z,41.66
2019-05-06T05:23:31.941Z,41.26
2019-05-06T05:24:31.695Z,41.63
2019-05-06T05:25:30.060Z,40.44
2019-05-06T05:26:32.182Z,41.06
2019-05-06T05:27:30.033Z,41.35
2019-05-06T05:28:31.645Z,40.13
2019-05-06T05:29:30.011Z,40.11
2019-05-06T05:30:30.011Z,39.59
2019-05-06T05:31:29.990Z,39.18
2019-05-06T05:32:31.988Z,39.61
2019-05-06T05:33:29.971Z,40.33
2019-05-06T05:34:38.020Z,40.31
2019-05-06T05:35:32.154Z,40.11
2019-05-06T05:36:29.943Z,40.52
2019-05-06T05:37:29.929Z,40.41
2019-05-06T05:38:31.903Z,40.21
2019-05-06T05:39:29.912Z,39.81
2019-05-06T05:40:32.071Z,40.31
2019-05-06T05:41:29.890Z,40.92
2019-05-06T05:42:29.882Z,40.70
2019-05-06T05:43:29.887Z,40.16
2019-05-06T05:44:29.866Z,39.61
2019-05-06T05:45:29.860Z,38.39
2019-05-06T05:46:29.841Z,37.78
2019-05-06T05:47:29.830Z,39.01
2019-05-06T05:48:29.881Z,38.48
2019-05-06T05:49:29.815Z,37.06
2019-05-06T05:50:32.342Z,37.26
2019-05-06T05:51:31.888Z,38.71
2019-05-06T05:52:29.783Z,38.17
2019-05-06T05:53:29.771Z,37.36
2019-05-06T05:54:29.762Z,37.34
2019-05-06T05:55:29.794Z,36.84
2019-05-06T05:56:29.745Z,36.94
2019-05-06T05:57:31.707Z,36.70
2019-05-06T05:58:29.725Z,36.79
2019-05-06T05:59:29.715Z,36.87
2019-05-06T06:00:32.245Z,36.45
2019-05-06T06:01:29.705Z,35.53
2019-05-06T06:02:29.684Z,35.21
2019-05-06T06:03:29.673Z,34.48
2019-05-06T06:04:32.025Z,34.78
2019-05-06T06:05:29.655Z,34.29
2019-05-06T06:06:29.654Z,35.23
2019-05-06T06:07:29.637Z,36.23
2019-05-06T06:08:29.631Z,35.41
2019-05-06T06:09:29.618Z,35.53
2019-05-06T06:10:29.609Z,35.64
2019-05-06T06:11:29.617Z,35.33
2019-05-06T06:12:29.591Z,36.29
2019-05-06T06:13:31.895Z,35.97
2019-05-06T06:14:29.575Z,35.35
2019-05-06T06:15:29.565Z,36.38
2019-05-06T06:16:29.563Z,36.60
2019-05-06T06:17:29.545Z,36.92
2019-05-06T06:18:29.558Z,36.24
2019-05-06T06:19:29.525Z,37.23
2019-05-06T06:20:29.516Z,36.30
2019-05-06T06:21:29.519Z,37.10
2019-05-06T06:22:29.509Z,35.88
2019-05-06T06:23:29.491Z,36.99
2019-05-06T06:24:29.479Z,35.90
2019-05-06T06:25:29.475Z,36.11
2019-05-06T06:26:29.469Z,37.04
2019-05-06T06:27:29.452Z,37.14
2019-05-06T06:28:29.442Z,37.45
2019-05-06T06:29:29.432Z,36.54
2019-05-06T06:30:29.423Z,37.85
2019-05-06T06:31:29.445Z,37.74
2019-05-06T06:32:29.405Z,36.58
2019-05-06T06:33:29.397Z,35.46
2019-05-06T06:34:29.388Z,36.29
2019-05-06T06:35:29.381Z,35.78
2019-05-06T06:36:29.369Z,36.90
2019-05-06T06:37:29.373Z,37.04
2019-05-06T06:38:29.349Z,36.96
2019-05-06T06:39:29.340Z,37.04
2019-05-06T06:40:29.333Z,36.80
2019-05-06T06:41:29.323Z,36.32
2019-05-06T06:42:29.321Z,37.10
2019-05-06T06:43:29.307Z,36.94
2019-05-06T06:44:29.296Z,38.27
2019-05-06T06:45:29.296Z,37.56
2019-05-06T06:46:29.280Z,38.42
2019-05-06T06:47:29.274Z,38.91
2019-05-06T06:48:29.255Z,38.40
2019-05-06T06:49:29.247Z,40.33
2019-05-06T06:50:29.238Z,41.14
2019-05-06T06:51:29.228Z,39.99
2019-05-06T06:52:29.226Z,40.01
2019-05-06T06:53:29.208Z,41.46
2019-05-06T06:54:29.199Z,40.30
2019-05-06T06:55:29.187Z,41.55
2019-05-06T06:56:29.179Z,40.73
2019-05-06T06:57:31.383Z,42.07
2019-05-06T06:58:32.181Z,41.32
2019-05-06T06:59:29.145Z,39.55
2019-05-06T07:00:29.139Z,39.57
2019-05-06T07:01:29.126Z,40.35
2019-05-06T07:02:29.129Z,40.82
2019-05-06T07:03:29.105Z,39.95
2019-05-06T07:04:29.098Z,38.08
2019-05-06T07:05:29.084Z,38.05
2019-05-06T07:06:29.075Z,37.01
2019-05-06T07:07:41.369Z,36.44
2019-05-06T07:08:36.552Z,38.62
2019-05-06T07:09:32.238Z,38.17
2019-05-06T07:10:29.037Z,38.20
2019-05-06T07:11:29.023Z,37.71
2019-05-06T07:12:29.019Z,38.54
2019-05-06T07:13:29.000Z,38.34
2019-05-06T07:14:28.990Z,37.93
2019-05-06T07:15:28.982Z,38.02
2019-05-06T07:16:28.974Z,38.40
2019-05-06T07:17:28.968Z,38.73
2019-05-06T07:18:28.949Z,39.45
2019-05-06T07:19:28.939Z,39.43
2019-05-06T07:20:28.929Z,38.34
2019-05-06T07:21:29.338Z,39.47
2019-05-06T07:22:28.941Z,39.57
2019-05-06T07:23:28.900Z,39.79
2019-05-06T07:24:28.887Z,40.75
2019-05-06T07:25:28.875Z,40.37
2019-05-06T07:26:28.870Z,41.77
2019-05-06T07:27:28.854Z,40.88
2019-05-06T07:28:28.854Z,40.27
2019-05-06T07:29:28.832Z,41.69
2019-05-06T07:30:28.823Z,40.25
2019-05-06T07:31:28.812Z,41.75
2019-05-06T07:32:28.800Z,42.61
2019-05-06T07:33:28.800Z,41.60
2019-05-06T07:34:28.779Z,41.28
2019-05-06T07:35:38.514Z,42.01
2019-05-06T07:36:31.774Z,41.18
2019-05-06T07:37:28.747Z,42.01
2019-05-06T07:38:28.746Z,42.43
2019-05-06T07:39:28.726Z,42.82
2019-05-06T07:40:28.715Z,41.12
2019-05-06T07:41:28.704Z,41.93
2019-05-06T07:42:28.721Z,42.74
2019-05-06T07:43:28.718Z,41.02
2019-05-06T07:44:28.677Z,40.83
2019-05-06T07:45:28.662Z,44.01
2019-05-06T07:46:28.660Z,44.44
2019-05-06T07:47:28.642Z,44.32
2019-05-06T07:48:28.630Z,43.53
2019-05-06T07:49:28.628Z,44.54
2019-05-06T07:50:28.609Z,42.54
2019-05-06T07:51:28.607Z,45.60
2019-05-06T07:52:28.588Z,45.50
2019-05-06T07:53:28.577Z,44.91
2019-05-06T07:54:28.573Z,45.52
2019-05-06T07:55:28.556Z,45.40
2019-05-06T07:56:28.546Z,46.11
2019-05-06T07:57:28.542Z,45.70
2019-05-06T07:58:28.523Z,43.77
2019-05-06T07:59:28.522Z,45.17
2019-05-06T08:00:28.502Z,45.37
2019-05-06T08:01:28.494Z,43.73
2019-05-06T08:02:28.479Z,44.74
2019-05-06T08:03:28.469Z,44.26
2019-05-06T08:04:28.465Z,44.71
2019-05-06T08:05:28.446Z,45.44
2019-05-06T08:06:28.436Z,46.11
2019-05-06T08:07:28.426Z,47.08
2019-05-06T08:08:28.414Z,46.87
2019-05-06T08:09:28.418Z,47.77
2019-05-06T08:10:28.395Z,46.85
2019-05-06T08:11:28.384Z,48.05
2019-05-06T08:12:28.389Z,47.85
2019-05-06T08:13:28.363Z,46.58
2019-05-06T08:14:28.388Z,46.28
2019-05-06T08:15:28.346Z,48.61
2019-05-06T08:16:28.329Z,45.36
2019-05-06T08:17:28.323Z,45.26
2019-05-06T08:18:28.314Z,44.46
2019-05-06T08:19:28.300Z,46.09
2019-05-06T08:20:28.301Z,45.68
2019-05-06T08:21:28.277Z,45.07
2019-05-06T08:22:28.266Z,45.99
2019-05-06T08:23:28.255Z,45.46
2019-05-06T08:24:28.250Z,45.46
2019-05-06T08:25:28.248Z,46.20
2019-05-06T08:26:28.225Z,46.81
2019-05-06T08:27:28.218Z,46.81
2019-05-06T08:28:40.307Z,46.50
2019-05-06T08:29:29.191Z,46.17
2019-05-06T08:30:28.216Z,46.37
2019-05-06T08:31:28.171Z,43.63
2019-05-06T08:32:28.163Z,44.14
2019-05-06T08:33:28.149Z,44.42
2019-05-06T08:34:28.138Z,45.34
2019-05-06T08:35:28.136Z,44.10
2019-05-06T08:36:28.119Z,43.99
2019-05-06T08:37:28.105Z,44.73
2019-05-06T08:38:28.096Z,43.79
2019-05-06T08:39:28.084Z,44.32
2019-05-06T08:40:28.081Z,45.24
2019-05-06T08:41:28.062Z,44.45
2019-05-06T08:42:28.053Z,44.57
2019-05-06T08:43:28.042Z,45.20
2019-05-06T08:44:28.030Z,44.49
2019-05-06T08:45:28.028Z,45.83
2019-05-06T08:46:28.009Z,44.31
2019-05-06T08:47:28.000Z,44.51
2019-05-06T08:48:27.989Z,44.69
2019-05-06T08:49:27.976Z,46.40
2019-05-06T08:50:27.973Z,45.87
2019-05-06T08:51:27.955Z,43.81
2019-05-06T08:52:27.944Z,44.40
2019-05-06T08:53:27.933Z,44.38
2019-05-06T08:54:27.922Z,43.75
2019-05-06T08:55:28.059Z,44.06
2019-05-06T08:56:27.903Z,42.54
2019-05-06T08:57:27.896Z,43.47
2019-05-06T08:58:27.881Z,43.69
2019-05-06T08:59:27.870Z,43.32
2019-05-06T09:00:27.860Z,44.45
2019-05-06T09:01:27.860Z,45.48
2019-05-06T09:02:27.838Z,44.85
2019-05-06T09:03:27.825Z,45.44
2019-05-06T09:04:27.817Z,45.14
2019-05-06T09:05:27.804Z,44.32
2019-05-06T09:06:31.590Z,44.65
2019-05-06T09:07:28.783Z,44.24
2019-05-06T09:08:27.773Z,45.67
2019-05-06T09:09:27.763Z,43.93
2019-05-06T09:10:27.751Z,44.12
2019-05-06T09:11:27.748Z,45.32
2019-05-06T09:12:27.729Z,46.70
2019-05-06T09:13:27.718Z,44.26
2019-05-06T09:14:27.709Z,44.26
2019-05-06T09:15:27.697Z,43.85
2019-05-06T09:16:27.697Z,43.37
2019-05-06T09:17:27.676Z,44.28
2019-05-06T09:18:27.667Z,44.08
2019-05-06T09:19:27.656Z,43.98
2019-05-06T09:20:27.645Z,44.08
2019-05-06T09:21:27.642Z,42.57
2019-05-06T09:22:27.630Z,42.77
2019-05-06T09:23:27.756Z,43.38
2019-05-06T09:24:27.608Z,44.10
2019-05-06T09:25:27.591Z,44.63
2019-05-06T09:26:27.588Z,44.42
2019-05-06T09:27:27.568Z,44.91
2019-05-06T09:28:27.573Z,44.20
2019-05-06T09:29:27.547Z,44.46
2019-05-06T09:30:27.539Z,44.24
2019-05-06T09:31:27.526Z,43.81
2019-05-06T09:32:27.535Z,41.97
2019-05-06T09:33:27.505Z,43.29
2019-05-06T09:34:27.508Z,41.85
2019-05-06T09:35:27.502Z,41.86
2019-05-06T09:36:39.856Z,39.65
2019-05-06T09:37:28.500Z,42.72
2019-05-06T09:38:27.450Z,42.54
2019-05-06T09:39:27.441Z,42.94
2019-05-06T09:40:27.430Z,41.96
2019-05-06T09:41:27.425Z,42.88
2019-05-06T09:42:27.418Z,42.80
2019-05-06T09:43:27.398Z,43.71
2019-05-06T09:44:27.386Z,41.88
2019-05-06T09:45:27.375Z,42.80
2019-05-06T09:46:27.392Z,42.07
2019-05-06T09:47:27.362Z,41.44
2019-05-06T09:48:27.346Z,41.82
2019-05-06T09:49:27.332Z,39.78
2019-05-06T09:50:27.324Z,40.16
2019-05-06T09:51:27.314Z,40.45
2019-05-06T09:52:27.309Z,41.54
2019-05-06T09:53:27.291Z,39.50
2019-05-06T09:54:27.282Z,39.31
2019-05-06T09:55:27.271Z,39.60
2019-05-06T09:56:27.259Z,39.80
2019-05-06T09:57:27.257Z,39.31
2019-05-06T09:58:27.240Z,39.31
2019-05-06T09:59:27.227Z,38.43
2019-05-06T10:00:27.216Z,40.26
2019-05-06T10:01:27.214Z,40.48
2019-05-06T10:02:27.204Z,39.59
2019-05-06T10:03:27.186Z,40.42
2019-05-06T10:04:27.174Z,41.64
2019-05-06T10:05:27.163Z,41.86
2019-05-06T10:06:27.157Z,40.56
2019-05-06T10:07:27.152Z,40.36
2019-05-06T10:08:27.133Z,41.35
2019-05-06T10:09:27.141Z,41.74
2019-05-06T10:10:27.109Z,41.91
2019-05-06T10:11:27.107Z,39.86
2019-05-06T10:12:27.096Z,40.47
2019-05-06T10:13:27.076Z,39.53
2019-05-06T10:14:27.067Z,40.63
2019-05-06T10:15:27.056Z,40.14
2019-05-06T10:16:27.047Z,39.86
2019-05-06T10:17:27.045Z,40.20
2019-05-06T10:18:27.026Z,40.20
2019-05-06T10:19:27.015Z,40.20
2019-05-06T10:20:27.002Z,39.73
2019-05-06T10:21:26.995Z,40.16
2019-05-06T10:22:26.991Z,40.17
2019-05-06T10:23:26.972Z,40.60
2019-05-06T10:24:26.958Z,41.61
2019-05-06T10:25:26.950Z,42.25
2019-05-06T10:26:26.940Z,41.84
2019-05-06T10:27:26.956Z,43.47
2019-05-06T10:28:26.928Z,42.68
2019-05-06T10:29:26.907Z,43.90
2019-05-06T10:30:26.897Z,44.10
2019-05-06T10:31:26.885Z,42.14
2019-05-06T10:32:26.872Z,42.04
2019-05-06T10:33:26.872Z,41.84
2019-05-06T10:34:26.853Z,42.65
2019-05-06T10:35:29.660Z,41.66
2019-05-06T10:36:26.831Z,43.08
2019-05-06T10:37:26.819Z,42.68
2019-05-06T10:38:26.820Z,43.49
2019-05-06T10:39:26.797Z,43.30
2019-05-06T10:40:26.789Z,42.49
2019-05-06T10:41:26.775Z,43.12
2019-05-06T10:42:26.765Z,43.81
2019-05-06T10:43:26.765Z,44.22
2019-05-06T10:44:26.744Z,43.94
2019-05-06T10:45:26.735Z,44.85
2019-05-06T10:46:26.720Z,44.34
2019-05-06T10:47:26.709Z,44.65
2019-05-06T10:48:26.707Z,44.45
2019-05-06T10:49:26.689Z,44.53
2019-05-06T10:50:26.683Z,45.34
2019-05-06T10:51:26.667Z,43.81
2019-05-06T10:52:26.656Z,44.43
2019-05-06T10:53:26.663Z,43.71
2019-05-06T10:54:26.633Z,44.10
2019-05-06T10:55:26.641Z,45.73
2019-05-06T10:56:26.611Z,44.69
2019-05-06T10:57:26.600Z,42.96
2019-05-06T10:58:26.625Z,42.96
2019-05-06T10:59:26.576Z,43.96
2019-05-06T11:00:26.567Z,41.68
2019-05-06T11:01:26.557Z,43.41
2019-05-06T11:02:26.575Z,42.47
2019-05-06T11:03:27.657Z,41.86
2019-05-06T11:04:26.532Z,41.03
2019-05-06T11:05:26.512Z,40.32
2019-05-06T11:06:26.500Z,40.22
2019-05-06T11:07:31.496Z,40.32
2019-05-06T11:08:27.477Z,40.95
2019-05-06T11:09:26.478Z,39.81
2019-05-06T11:10:31.254Z,40.54
2019-05-06T11:11:37.739Z,39.83
2019-05-06T11:12:27.434Z,41.07
2019-05-06T11:13:26.428Z,39.85
2019-05-06T11:14:26.424Z,40.56
2019-05-06T11:15:26.403Z,42.08
2019-05-06T11:16:26.392Z,40.70
2019-05-06T11:17:26.384Z,40.60
2019-05-06T11:18:26.372Z,40.30
2019-05-06T11:19:26.369Z,39.48
2019-05-06T11:20:26.351Z,39.87
2019-05-06T11:21:26.338Z,40.19
2019-05-06T11:22:26.340Z,40.19
2019-05-06T11:23:26.317Z,39.78
2019-05-06T11:24:26.321Z,41.00
2019-05-06T11:25:26.295Z,42.22
2019-05-06T11:26:26.284Z,41.49
2019-05-06T11:27:32.012Z,41.47
2019-05-06T11:28:27.263Z,41.86
2019-05-06T11:29:26.265Z,40.14
2019-05-06T11:30:26.240Z,40.23
2019-05-06T11:31:26.231Z,39.83
2019-05-06T11:32:26.221Z,40.46
2019-05-06T11:33:26.209Z,40.97
2019-05-06T11:34:26.253Z,41.07
2019-05-06T11:35:26.185Z,40.44
2019-05-06T11:36:26.184Z,38.59
2019-05-06T11:37:26.168Z,39.89
2019-05-06T11:38:26.155Z,41.60
2019-05-06T11:39:26.153Z,40.38
2019-05-06T11:40:26.159Z,39.65
2019-05-06T11:41:26.121Z,38.23
2019-05-06T11:42:32.107Z,38.03
2019-05-06T11:43:27.098Z,37.52
2019-05-06T11:44:26.129Z,38.43
2019-05-06T11:45:26.078Z,38.64
2019-05-06T11:46:26.084Z,39.64
2019-05-06T11:47:26.056Z,39.21
2019-05-06T11:48:26.046Z,37.67
2019-05-06T11:49:26.039Z,39.50
2019-05-06T11:50:26.037Z,37.65
2019-05-06T11:51:26.018Z,38.57
2019-05-06T11:52:26.007Z,37.65
2019-05-06T11:53:25.994Z,37.57
2019-05-06T11:54:25.985Z,37.47
2019-05-06T11:55:31.614Z,38.50
2019-05-06T11:56:26.961Z,38.72
2019-05-06T11:57:25.949Z,38.42
2019-05-06T11:58:25.944Z,38.12
2019-05-06T11:59:25.929Z,38.23
2019-05-06T12:00:25.932Z,37.74
2019-05-06T12:01:25.910Z,36.73
2019-05-06T12:02:25.897Z,37.96
2019-05-06T12:03:25.888Z,39.40
2019-05-06T12:04:25.880Z,39.73
2019-05-06T12:05:25.879Z,40.23
2019-05-06T12:06:25.855Z,40.05
2019-05-06T12:07:25.848Z,42.59
2019-05-06T12:08:25.835Z,41.68
2019-05-06T12:09:25.824Z,41.78
2019-05-06T12:10:25.824Z,40.56
2019-05-06T12:11:25.802Z,42.88
2019-05-06T12:12:25.794Z,42.07
2019-05-06T12:13:25.785Z,41.96
2019-05-06T12:14:25.770Z,41.84
2019-05-06T12:15:25.770Z,41.44
2019-05-06T12:16:26.445Z,39.93
2019-05-06T12:17:25.740Z,40.14
2019-05-06T12:18:25.727Z,40.44
2019-05-06T12:19:25.721Z,40.44
2019-05-06T12:20:25.714Z,42.05
2019-05-06T12:21:25.697Z,41.33
2019-05-06T12:22:25.685Z,41.72
2019-05-06T12:23:25.690Z,41.30
2019-05-06T12:24:25.667Z,41.21
2019-05-06T12:25:25.726Z,40.40
2019-05-06T12:26:25.646Z,41.01
2019-05-06T12:27:25.631Z,40.50
2019-05-06T12:28:25.621Z,40.09
2019-05-06T12:29:25.619Z,42.02
2019-05-06T12:30:25.610Z,41.52
2019-05-06T12:31:25.589Z,40.20
2019-05-06T12:32:25.579Z,40.62
2019-05-06T12:33:25.568Z,40.61
2019-05-06T12:34:25.557Z,42.14
2019-05-06T12:35:25.556Z,42.23
2019-05-06T12:36:25.538Z,41.52
2019-05-06T12:37:25.525Z,40.40
2019-05-06T12:38:30.332Z,40.48
2019-05-06T12:39:26.512Z,40.18
2019-05-06T12:40:25.502Z,40.06
2019-05-06T12:41:25.483Z,41.28
2019-05-06T12:42:25.473Z,40.06
2019-05-06T12:43:25.460Z,38.76
2019-05-06T12:44:25.453Z,39.57
2019-05-06T12:45:25.461Z,40.08
2019-05-06T12:46:25.429Z,40.38
2019-05-06T12:47:25.420Z,40.59
2019-05-06T12:48:25.416Z,40.81
2019-05-06T12:49:25.397Z,40.40
2019-05-06T12:50:25.386Z,41.72
2019-05-06T12:51:25.383Z,39.89
2019-05-06T12:52:25.366Z,41.05